createdAt,value
2019-02-23T00:00:29.065Z,9.60
2019-02-23T00:01:39.529Z,9.00
2019-02-23T00:02:28.969Z,9.00
2019-02-23T00:03:29.022Z,8.80
2019-02-23T00:04:28.963Z,8.80
2019-02-23T00:05:29.095Z,8.70
2019-02-23T00:06:30.118Z,8.60
2019-02-23T00:07:28.856Z,8.70
2019-02-23T00:08:28.848Z,8.80
2019-02-23T00:09:38.392Z,8.40
2019-02-23T00:10:28.979Z,9.80
2019-02-23T00:11:28.886Z,9.30
2019-02-23T00:12:28.882Z,9.20
2019-02-23T00:13:28.922Z,8.30
2019-02-23T00:14:28.834Z,8.70
2019-02-23T00:15:28.771Z,9.00
2019-02-23T00:16:28.796Z,9.20
2019-02-23T00:17:28.774Z,8.60
2019-02-23T00:18:28.745Z,9.30
2019-02-23T00:19:28.729Z,8.60
2019-02-23T00:20:28.719Z,8.60
2019-02-23T00:21:28.727Z,8.80
2019-02-23T00:22:28.730Z,8.90
2019-02-23T00:23:28.690Z,8.90
2019-02-23T00:24:28.676Z,8.50
2019-02-23T00:25:29.677Z,7.90
2019-02-23T00:26:28.671Z,8.50
2019-02-23T00:27:28.637Z,8.00
2019-02-23T00:28:28.626Z,8.40
2019-02-23T00:29:28.630Z,8.80
2019-02-23T00:30:28.605Z,9.00
2019-02-23T00:31:28.623Z,8.50
2019-02-23T00:32:28.604Z,8.70
2019-02-23T00:33:28.593Z,8.50
2019-02-23T00:34:28.563Z,8.80
2019-02-23T00:35:28.570Z,8.70
2019-02-23T00:36:28.541Z,8.30
2019-02-23T00:37:28.542Z,9.30
2019-02-23T00:38:28.554Z,8.90
2019-02-23T00:39:28.516Z,8.50
2019-02-23T00:40:28.517Z,9.10
2019-02-23T00:41:28.487Z,8.90
2019-02-23T00:42:28.503Z,8.40
2019-02-23T00:43:28.461Z,8.40
2019-02-23T00:44:37.171Z,8.90
2019-02-23T00:45:28.547Z,9.90
2019-02-23T00:46:28.519Z,9.20
2019-02-23T00:47:28.498Z,9.40
2019-02-23T00:48:28.585Z,8.40
2019-02-23T00:49:35.870Z,8.30
2019-02-23T00:50:29.444Z,9.00
2019-02-23T00:51:28.413Z,8.50
2019-02-23T00:52:28.360Z,8.00
2019-02-23T00:53:28.393Z,8.60
2019-02-23T00:54:28.354Z,8.10
2019-02-23T00:55:28.364Z,8.20
2019-02-23T00:56:28.332Z,7.70
2019-02-23T00:57:28.310Z,8.30
2019-02-23T00:58:28.306Z,7.70
2019-02-23T00:59:28.303Z,7.90
2019-02-23T01:00:28.275Z,8.70
2019-02-23T01:01:28.390Z,8.60
2019-02-23T01:02:28.262Z,8.20
2019-02-23T01:03:28.245Z,7.20
2019-02-23T01:04:28.259Z,7.90
2019-02-23T01:05:28.249Z,8.10
2019-02-23T01:06:28.290Z,7.00
2019-02-23T01:07:28.201Z,7.10
2019-02-23T01:08:28.214Z,7.40
2019-02-23T01:09:28.190Z,7.70
2019-02-23T01:10:28.199Z,7.60
2019-02-23T01:11:28.162Z,7.70
2019-02-23T01:12:28.150Z,6.90
2019-02-23T01:13:28.129Z,7.10
2019-02-23T01:14:28.175Z,6.70
2019-02-23T01:15:28.143Z,6.20
2019-02-23T01:16:28.101Z,6.50
2019-02-23T01:17:28.095Z,6.50
2019-02-23T01:18:28.081Z,6.30
2019-02-23T01:19:28.071Z,5.90
2019-02-23T01:20:28.073Z,6.50
2019-02-23T01:21:28.082Z,6.20
2019-02-23T01:22:28.048Z,6.20
2019-02-23T01:23:28.026Z,6.10
2019-02-23T01:24:28.085Z,5.50
2019-02-23T01:25:28.011Z,6.20
2019-02-23T01:26:28.022Z,6.20
2019-02-23T01:27:27.989Z,5.70
2019-02-23T01:28:28.036Z,6.10
2019-02-23T01:29:27.965Z,5.80
2019-02-23T01:30:27.955Z,6.20
2019-02-23T01:31:27.938Z,6.10
2019-02-23T01:32:27.943Z,6.00
2019-02-23T01:33:27.922Z,5.30
2019-02-23T01:34:27.914Z,5.10
2019-02-23T01:35:27.929Z,5.70
2019-02-23T01:36:27.890Z,5.50
2019-02-23T01:37:27.889Z,5.40
2019-02-23T01:38:27.890Z,5.10
2019-02-23T01:39:27.855Z,5.90
2019-02-23T01:40:27.847Z,5.00
2019-02-23T01:41:27.832Z,5.40
2019-02-23T01:42:27.887Z,5.80
2019-02-23T01:43:27.809Z,4.90
2019-02-23T01:44:27.800Z,5.80
2019-02-23T01:45:27.873Z,6.30
2019-02-23T01:46:27.784Z,5.80
2019-02-23T01:47:27.761Z,6.40
2019-02-23T01:48:27.769Z,6.40
2019-02-23T01:49:27.754Z,8.10
2019-02-23T01:50:27.739Z,7.80
2019-02-23T01:51:27.746Z,7.20
2019-02-23T01:52:27.707Z,6.70
2019-02-23T01:53:27.728Z,7.10
2019-02-23T01:54:27.688Z,7.00
2019-02-23T01:55:27.678Z,7.00
2019-02-23T01:56:27.670Z,6.70
2019-02-23T01:57:27.656Z,7.10
2019-02-23T01:58:27.654Z,7.10
2019-02-23T01:59:27.681Z,7.40
2019-02-23T02:00:28.619Z,7.00
2019-02-23T02:01:27.624Z,7.40
2019-02-23T02:02:27.601Z,7.30
2019-02-23T02:03:27.592Z,6.90
2019-02-23T02:04:27.610Z,7.10
2019-02-23T02:05:27.662Z,6.70
2019-02-23T02:06:27.565Z,6.60
2019-02-23T02:07:27.626Z,6.50
2019-02-23T02:08:27.543Z,6.40
2019-02-23T02:09:27.562Z,6.40
2019-02-23T02:10:27.517Z,6.30
2019-02-23T02:11:27.519Z,5.70
2019-02-23T02:12:27.503Z,6.10
2019-02-23T02:13:27.526Z,5.70
2019-02-23T02:14:27.474Z,6.40
2019-02-23T02:15:27.472Z,5.90
2019-02-23T02:16:27.455Z,5.90
2019-02-23T02:17:27.440Z,5.70
2019-02-23T02:18:27.419Z,6.10
2019-02-23T02:19:27.426Z,6.20
2019-02-23T02:20:27.488Z,6.90
2019-02-23T02:21:27.390Z,6.60
2019-02-23T02:22:27.383Z,5.80
2019-02-23T02:23:27.387Z,6.30
2019-02-23T02:24:27.375Z,5.80
2019-02-23T02:25:27.346Z,6.00
2019-02-23T02:26:27.341Z,5.80
2019-02-23T02:27:27.328Z,5.70
2019-02-23T02:28:27.358Z,6.10
2019-02-23T02:29:27.304Z,6.00
2019-02-23T02:30:27.940Z,6.20
2019-02-23T02:31:27.305Z,6.40
2019-02-23T02:32:27.271Z,6.20
2019-02-23T02:33:27.276Z,6.60
2019-02-23T02:34:27.262Z,6.50
2019-02-23T02:35:27.264Z,6.20
2019-02-23T02:36:27.531Z,5.90
2019-02-23T02:37:27.249Z,6.30
2019-02-23T02:38:27.216Z,6.20
2019-02-23T02:39:27.207Z,6.00
2019-02-23T02:40:27.218Z,6.10
2019-02-23T02:41:27.188Z,6.00
2019-02-23T02:42:27.173Z,5.90
2019-02-23T02:43:27.159Z,5.60
2019-02-23T02:44:27.159Z,6.00
2019-02-23T02:45:27.939Z,6.30
2019-02-23T02:46:27.121Z,6.10
2019-02-23T02:47:36.891Z,6.40
2019-02-23T02:48:27.190Z,6.70
2019-02-23T02:49:27.121Z,6.50
2019-02-23T02:50:27.118Z,6.50
2019-02-23T02:51:27.142Z,6.40
2019-02-23T02:52:27.127Z,5.90
2019-02-23T02:53:27.981Z,5.90
2019-02-23T02:54:27.036Z,5.80
2019-02-23T02:55:27.049Z,6.00
2019-02-23T02:56:27.013Z,6.10
2019-02-23T02:57:27.016Z,6.00
2019-02-23T02:58:27.058Z,6.30
2019-02-23T02:59:26.977Z,5.50
2019-02-23T03:00:27.028Z,6.00
2019-02-23T03:01:26.967Z,6.10
2019-02-23T03:02:26.946Z,6.00
2019-02-23T03:03:26.980Z,6.00
2019-02-23T03:04:26.940Z,6.30
2019-02-23T03:05:26.910Z,6.40
2019-02-23T03:06:26.907Z,6.30
2019-02-23T03:07:26.886Z,6.10
2019-02-23T03:08:26.878Z,5.80
2019-02-23T03:09:27.004Z,6.00
2019-02-23T03:10:27.420Z,6.00
2019-02-23T03:11:26.851Z,5.80
2019-02-23T03:12:26.831Z,5.30
2019-02-23T03:13:26.827Z,5.80
2019-02-23T03:14:26.952Z,6.20
2019-02-23T03:15:27.462Z,5.40
2019-02-23T03:16:26.798Z,6.10
2019-02-23T03:17:26.777Z,6.10
2019-02-23T03:18:26.770Z,6.30
2019-02-23T03:19:26.760Z,6.60
2019-02-23T03:20:36.295Z,6.90
2019-02-23T03:21:27.767Z,6.50
2019-02-23T03:22:26.751Z,6.20
2019-02-23T03:23:26.721Z,6.60
2019-02-23T03:24:26.709Z,6.20
2019-02-23T03:25:26.695Z,7.20
2019-02-23T03:26:26.696Z,7.00
2019-02-23T03:27:26.685Z,6.10
2019-02-23T03:28:26.745Z,6.80
2019-02-23T03:29:26.659Z,6.50
2019-02-23T03:30:26.838Z,6.60
2019-02-23T03:31:26.654Z,6.80
2019-02-23T03:32:26.631Z,6.50
2019-02-23T03:33:26.616Z,5.30
2019-02-23T03:34:26.633Z,5.30
2019-02-23T03:35:26.587Z,5.10
2019-02-23T03:36:26.574Z,5.70
2019-02-23T03:37:26.572Z,5.80
2019-02-23T03:38:26.557Z,5.60
2019-02-23T03:39:37.847Z,6.10
2019-02-23T03:40:26.566Z,7.00
2019-02-23T03:41:27.500Z,5.90
2019-02-23T03:42:27.584Z,5.20
2019-02-23T03:43:35.282Z,5.40
2019-02-23T03:44:28.064Z,6.00
2019-02-23T03:45:26.529Z,5.40
2019-02-23T03:46:37.965Z,5.20
2019-02-23T03:47:37.199Z,6.30
2019-02-23T03:48:27.165Z,5.90
2019-02-23T03:49:26.446Z,5.80
2019-02-23T03:50:48.744Z,5.90
2019-02-23T03:51:27.476Z,5.90
2019-02-23T03:52:26.412Z,5.90
2019-02-23T03:53:26.449Z,5.10
2019-02-23T03:54:27.192Z,5.10
2019-02-23T03:55:26.521Z,5.20
2019-02-23T03:56:26.391Z,5.30
2019-02-23T03:57:26.342Z,5.40
2019-02-23T03:58:28.662Z,5.00
2019-02-23T03:59:26.321Z,5.60
2019-02-23T04:00:26.411Z,5.40
2019-02-23T04:01:26.485Z,5.60
2019-02-23T04:02:26.312Z,5.40
2019-02-23T04:03:26.280Z,5.40
2019-02-23T04:04:28.148Z,5.80
2019-02-23T04:05:26.253Z,5.00
2019-02-23T04:06:26.256Z,5.10
2019-02-23T04:07:26.322Z,5.20
2019-02-23T04:08:26.227Z,5.40
2019-02-23T04:09:26.244Z,5.20
2019-02-23T04:10:36.066Z,4.50
2019-02-23T04:11:37.363Z,5.40
2019-02-23T04:12:26.275Z,4.90
2019-02-23T04:13:40.845Z,4.60
2019-02-23T04:14:37.121Z,5.20
2019-02-23T04:15:26.214Z,5.30
2019-02-23T04:16:36.145Z,4.80
2019-02-23T04:17:26.234Z,5.50
2019-02-23T04:18:35.628Z,4.70
2019-02-23T04:20:37.530Z,4.50
2019-02-23T04:22:48.875Z,5.00
2019-02-23T04:23:48.724Z,5.20
2019-02-23T04:24:48.784Z,5.30
2019-02-23T04:25:48.865Z,5.30
2019-02-23T04:26:48.802Z,5.90
2019-02-23T04:27:48.650Z,4.80
2019-02-23T04:28:48.624Z,4.90
2019-02-23T04:29:49.299Z,5.60
2019-02-23T04:30:48.625Z,5.40
2019-02-23T04:31:48.582Z,4.70
2019-02-23T04:32:48.615Z,5.40
2019-02-23T04:33:58.489Z,5.00
2019-02-23T04:34:48.642Z,5.20
2019-02-23T04:35:48.562Z,5.00
2019-02-23T04:36:48.620Z,5.10
2019-02-23T04:37:49.395Z,5.70
2019-02-23T04:38:48.647Z,5.00
2019-02-23T04:39:48.515Z,4.90
2019-02-23T04:40:48.486Z,4.90
2019-02-23T04:41:59.408Z,4.50
2019-02-23T04:42:48.554Z,5.10
2019-02-23T04:43:48.522Z,4.70
2019-02-23T04:44:48.498Z,4.90
2019-02-23T04:45:48.583Z,4.70
2019-02-23T04:46:50.416Z,4.50
2019-02-23T04:47:48.410Z,5.00
2019-02-23T04:48:58.333Z,5.20
2019-02-23T04:49:48.442Z,4.50
2019-02-23T04:50:59.559Z,5.10
2019-02-23T04:51:48.470Z,5.30
2019-02-23T04:52:48.495Z,5.10
2019-02-23T04:53:48.458Z,4.50
2019-02-23T04:56:01.063Z,4.20
2019-02-23T04:57:01.894Z,4.60
2019-02-23T04:58:11.747Z,5.40
2019-02-23T04:59:10.416Z,4.90
2019-02-23T05:00:01.441Z,4.60
2019-02-23T05:01:01.813Z,5.30
2019-02-23T05:02:00.795Z,4.80
2019-02-23T05:03:00.778Z,4.30
2019-02-23T05:04:12.178Z,4.20
2019-02-23T05:05:00.836Z,4.90
2019-02-23T05:06:00.817Z,5.00
2019-02-23T05:07:00.793Z,4.70
2019-02-23T05:08:09.455Z,3.80
2019-02-23T05:09:00.888Z,5.50
2019-02-23T05:10:00.782Z,5.10
2019-02-23T05:11:00.747Z,4.20
2019-02-23T05:12:00.790Z,4.70
2019-02-23T05:13:00.736Z,5.10
2019-02-23T05:14:00.806Z,5.00
2019-02-23T05:15:09.562Z,4.50
2019-02-23T05:16:00.733Z,4.90
2019-02-23T05:17:01.555Z,4.70
2019-02-23T05:18:14.725Z,4.60
2019-02-23T05:19:01.773Z,5.00
2019-02-23T05:20:11.162Z,4.20
2019-02-23T05:21:11.420Z,5.20
2019-02-23T05:23:14.728Z,4.40
2019-02-23T05:24:14.594Z,5.30
2019-02-23T05:25:25.357Z,4.90
2019-02-23T05:26:14.560Z,5.30
2019-02-23T05:27:14.535Z,5.60
2019-02-23T05:29:33.147Z,5.10
2019-02-23T05:31:44.379Z,7.00
2019-02-23T05:32:54.321Z,5.80
2019-02-23T05:33:44.994Z,5.20
2019-02-23T05:34:53.725Z,4.80
2019-02-23T05:35:44.203Z,5.20
2019-02-23T05:36:44.192Z,5.60
2019-02-23T05:37:44.183Z,4.90
2019-02-23T05:38:44.152Z,4.60
2019-02-23T05:40:57.892Z,5.50
2019-02-23T05:43:09.157Z,4.40
2019-02-23T05:45:25.060Z,5.00
2019-02-23T05:46:25.465Z,5.00
2019-02-23T05:47:24.916Z,4.80
2019-02-23T05:48:35.544Z,3.90
2019-02-23T05:49:37.002Z,4.40
2019-02-23T05:50:24.879Z,4.60
2019-02-23T05:51:24.827Z,4.60
2019-02-23T05:52:34.168Z,3.80
2019-02-23T05:54:36.071Z,4.40
2019-02-23T05:56:47.464Z,4.40
2019-02-23T05:57:47.309Z,4.50
2019-02-23T05:58:47.260Z,4.50
2019-02-23T05:59:47.250Z,4.60
2019-02-23T06:00:47.329Z,4.30
2019-02-23T06:01:47.292Z,4.60
2019-02-23T06:02:47.264Z,4.20
2019-02-23T06:03:47.238Z,3.80
2019-02-23T06:04:47.298Z,4.10
2019-02-23T06:05:47.169Z,4.30
2019-02-23T06:06:47.138Z,4.20
2019-02-23T06:07:48.989Z,3.90
2019-02-23T06:08:47.139Z,3.60
2019-02-23T06:09:47.107Z,3.80
2019-02-23T06:10:55.794Z,4.10
2019-02-23T06:11:47.158Z,3.90
2019-02-23T06:12:47.101Z,4.40
2019-02-23T06:13:47.117Z,4.90
2019-02-23T06:14:47.103Z,3.90
2019-02-23T06:15:47.102Z,4.40
2019-02-23T06:16:47.073Z,4.50
2019-02-23T06:17:47.024Z,3.70
2019-02-23T06:18:47.049Z,4.50
2019-02-23T06:19:47.056Z,4.40
2019-02-23T06:20:47.550Z,4.60
2019-02-23T06:21:53.499Z,3.70
2019-02-23T06:22:48.022Z,4.10
2019-02-23T06:23:47.013Z,3.20
2019-02-23T06:24:55.641Z,4.00
2019-02-23T06:25:56.885Z,4.20
2019-02-23T06:27:58.308Z,4.50
2019-02-23T06:28:58.172Z,4.40
2019-02-23T06:29:58.221Z,4.40
2019-02-23T06:31:09.412Z,4.40
2019-02-23T06:32:06.845Z,4.50
2019-02-23T06:32:58.150Z,5.50
2019-02-23T06:34:15.409Z,3.70
2019-02-23T06:36:11.381Z,4.80
2019-02-23T06:37:11.285Z,4.50
2019-02-23T06:38:20.875Z,4.20
2019-02-23T06:39:11.316Z,4.20
2019-02-23T06:40:12.083Z,4.80
2019-02-23T06:41:11.314Z,4.00
2019-02-23T06:43:23.840Z,4.30
2019-02-23T06:44:22.477Z,4.80
2019-02-23T06:45:34.271Z,5.00
2019-02-23T06:47:48.007Z,3.70
2019-02-23T06:49:59.332Z,3.70
2019-02-23T06:52:13.119Z,3.70
2019-02-23T06:53:20.059Z,4.10
2019-02-23T06:54:10.256Z,4.10
2019-02-23T06:56:23.430Z,3.70
2019-02-23T06:57:23.262Z,4.30
2019-02-23T06:58:33.969Z,4.00
2019-02-23T06:59:31.893Z,4.00
2019-02-23T07:00:24.653Z,4.80
2019-02-23T07:01:23.221Z,4.60
2019-02-23T07:02:36.413Z,4.20
2019-02-23T07:03:23.198Z,4.80
2019-02-23T07:04:31.836Z,4.60
2019-02-23T07:05:23.793Z,4.10
2019-02-23T07:06:23.137Z,4.60
2019-02-23T07:07:25.789Z,4.00
2019-02-23T07:08:23.150Z,4.40
2019-02-23T07:09:23.084Z,4.70
2019-02-23T07:10:31.807Z,4.20
2019-02-23T07:11:23.088Z,4.20
2019-02-23T07:12:32.576Z,3.70
2019-02-23T07:13:23.073Z,4.70
2019-02-23T07:14:23.030Z,5.30
2019-02-23T07:15:35.618Z,4.90
2019-02-23T07:16:23.025Z,4.50
2019-02-23T07:17:23.023Z,4.60
2019-02-23T07:18:36.062Z,4.50
2019-02-23T07:20:44.117Z,4.70
2019-02-23T07:21:38.856Z,4.50
2019-02-23T07:22:48.558Z,4.10
2019-02-23T07:23:39.495Z,4.80
2019-02-23T07:24:37.798Z,5.60
2019-02-23T07:25:37.838Z,5.30
2019-02-23T07:26:37.820Z,4.70
2019-02-23T07:27:37.906Z,4.90
2019-02-23T07:28:37.763Z,4.70
2019-02-23T07:29:37.727Z,5.20
2019-02-23T07:32:02.237Z,3.80
2019-02-23T07:33:02.127Z,4.60
2019-02-23T07:34:02.005Z,4.90
2019-02-23T07:35:02.039Z,4.80
2019-02-23T07:36:02.026Z,4.40
2019-02-23T07:37:02.018Z,4.40
2019-02-23T07:38:01.976Z,4.30
2019-02-23T07:39:02.005Z,4.00
2019-02-23T07:40:01.956Z,4.10
2019-02-23T07:41:01.958Z,4.30
2019-02-23T07:42:01.973Z,4.60
2019-02-23T07:43:01.904Z,4.30
2019-02-23T07:44:03.544Z,4.70
2019-02-23T07:45:01.911Z,4.50
2019-02-23T07:46:01.954Z,4.90
2019-02-23T07:47:01.925Z,4.10
2019-02-23T07:48:01.921Z,4.60
2019-02-23T07:49:01.886Z,4.80
2019-02-23T07:50:01.854Z,4.60
2019-02-23T07:51:01.848Z,4.40
2019-02-23T07:52:01.889Z,5.80
2019-02-23T07:53:01.813Z,6.40
2019-02-23T07:54:01.870Z,4.90
2019-02-23T07:55:01.780Z,4.60
2019-02-23T07:56:01.794Z,5.20
2019-02-23T07:57:01.760Z,6.70
2019-02-23T07:58:01.765Z,5.40
2019-02-23T07:59:01.774Z,5.10
2019-02-23T08:00:01.771Z,6.00
2019-02-23T08:01:01.771Z,4.70
2019-02-23T08:02:01.758Z,5.10
2019-02-23T08:03:01.778Z,4.70
2019-02-23T08:04:01.840Z,5.10
2019-02-23T08:05:01.698Z,4.60
2019-02-23T08:06:01.648Z,5.00
2019-02-23T08:07:01.661Z,4.70
2019-02-23T08:08:01.635Z,4.70
2019-02-23T08:09:01.620Z,4.70
2019-02-23T08:10:01.627Z,4.50
2019-02-23T08:11:01.594Z,4.80
2019-02-23T08:12:01.591Z,5.00
2019-02-23T08:13:01.573Z,4.90
2019-02-23T08:14:01.578Z,4.70
2019-02-23T08:15:01.567Z,3.80
2019-02-23T08:16:01.541Z,4.30
2019-02-23T08:17:01.527Z,4.70
2019-02-23T08:18:01.519Z,3.90
2019-02-23T08:19:01.523Z,4.20
2019-02-23T08:20:01.497Z,4.70
2019-02-23T08:21:01.507Z,4.50
2019-02-23T08:22:01.482Z,4.40
2019-02-23T08:23:01.465Z,4.30
2019-02-23T08:24:01.469Z,4.70
2019-02-23T08:25:01.457Z,5.20
2019-02-23T08:26:01.426Z,4.90
2019-02-23T08:27:01.426Z,4.60
2019-02-23T08:28:01.406Z,5.10
2019-02-23T08:29:01.438Z,4.20
2019-02-23T08:30:01.415Z,4.40
2019-02-23T08:31:01.380Z,4.40
2019-02-23T08:32:01.359Z,5.00
2019-02-23T08:33:01.359Z,4.70
2019-02-23T08:34:01.345Z,4.50
2019-02-23T08:35:01.368Z,4.40
2019-02-23T08:36:01.338Z,4.60
2019-02-23T08:37:01.314Z,4.00
2019-02-23T08:38:01.299Z,4.40
2019-02-23T08:39:01.289Z,4.20
2019-02-23T08:40:01.282Z,4.40
2019-02-23T08:41:01.291Z,4.60
2019-02-23T08:42:01.269Z,4.20
2019-02-23T08:43:01.250Z,4.10
2019-02-23T08:44:01.240Z,4.30
2019-02-23T08:45:01.230Z,4.00
2019-02-23T08:46:01.215Z,3.50
2019-02-23T08:47:01.237Z,3.90
2019-02-23T08:48:01.187Z,3.90
2019-02-23T08:49:01.174Z,4.00
2019-02-23T08:50:01.167Z,4.00
2019-02-23T08:51:01.153Z,4.40
2019-02-23T08:52:02.054Z,4.70
2019-02-23T08:53:01.170Z,3.70
2019-02-23T08:54:01.129Z,4.30
2019-02-23T08:55:01.116Z,3.90
2019-02-23T08:56:02.072Z,4.00
2019-02-23T08:57:01.090Z,4.20
2019-02-23T08:58:01.097Z,3.90
2019-02-23T08:59:01.091Z,3.70
2019-02-23T09:00:01.064Z,3.70
2019-02-23T09:01:01.046Z,3.90
2019-02-23T09:02:01.042Z,3.70
2019-02-23T09:03:01.050Z,3.90
2019-02-23T09:04:01.024Z,4.30
2019-02-23T09:05:01.014Z,3.70
2019-02-23T09:06:00.990Z,3.90
2019-02-23T09:07:01.009Z,4.70
2019-02-23T09:08:01.032Z,4.30
2019-02-23T09:09:00.984Z,4.00
2019-02-23T09:10:00.953Z,4.10
2019-02-23T09:11:00.939Z,3.60
2019-02-23T09:12:00.933Z,3.40
2019-02-23T09:13:00.914Z,4.10
2019-02-23T09:14:11.924Z,3.50
2019-02-23T09:15:01.012Z,3.40
2019-02-23T09:16:01.040Z,3.50
2019-02-23T09:17:01.038Z,3.90
2019-02-23T09:18:00.908Z,3.70
2019-02-23T09:19:00.876Z,3.10
2019-02-23T09:20:00.842Z,3.40
2019-02-23T09:21:00.845Z,3.90
2019-02-23T09:22:00.817Z,4.20
2019-02-23T09:23:00.813Z,3.30
2019-02-23T09:24:00.794Z,3.70
2019-02-23T09:25:00.833Z,4.10
2019-02-23T09:26:00.776Z,3.60
2019-02-23T09:27:00.763Z,3.60
2019-02-23T09:28:00.746Z,3.50
2019-02-23T09:29:00.750Z,3.90
2019-02-23T09:30:00.771Z,4.10
2019-02-23T09:31:00.753Z,3.40
2019-02-23T09:32:01.805Z,3.50
2019-02-23T09:33:01.696Z,3.10
2019-02-23T09:34:00.690Z,4.00
2019-02-23T09:35:00.716Z,3.70
2019-02-23T09:36:12.081Z,3.80
2019-02-23T09:37:00.796Z,4.10
2019-02-23T09:39:18.092Z,2.90
2019-02-23T09:40:17.978Z,3.30
2019-02-23T09:41:17.951Z,3.70
2019-02-23T09:42:17.895Z,3.30
2019-02-23T09:43:18.008Z,3.90
2019-02-23T09:44:27.845Z,3.50
2019-02-23T09:45:50.482Z,4.20
2019-02-23T09:46:17.944Z,4.10
2019-02-23T09:47:17.895Z,3.30
2019-02-23T09:48:17.818Z,3.60
2019-02-23T09:49:17.856Z,3.30
2019-02-23T09:50:17.766Z,3.30
2019-02-23T09:51:17.704Z,2.70
2019-02-23T09:52:17.722Z,3.40
2019-02-23T09:53:17.716Z,3.50
2019-02-23T09:54:17.675Z,3.30
2019-02-23T09:55:18.605Z,3.90
2019-02-23T09:56:17.651Z,3.50
2019-02-23T09:57:17.654Z,4.30
2019-02-23T09:58:17.649Z,3.10
2019-02-23T09:59:17.611Z,3.50
2019-02-23T10:00:17.599Z,3.40
2019-02-23T10:01:17.589Z,3.60
2019-02-23T10:02:17.637Z,3.40
2019-02-23T10:03:17.568Z,3.10
2019-02-23T10:04:17.572Z,3.10
2019-02-23T10:05:17.609Z,3.40
2019-02-23T10:06:17.540Z,3.30
2019-02-23T10:07:17.522Z,3.30
2019-02-23T10:08:17.559Z,3.20
2019-02-23T10:09:17.499Z,3.80
2019-02-23T10:10:17.501Z,3.00
2019-02-23T10:11:17.490Z,3.00
2019-02-23T10:12:17.465Z,2.90
2019-02-23T10:13:17.494Z,2.40
2019-02-23T10:14:17.479Z,2.90
2019-02-23T10:15:17.435Z,2.70
2019-02-23T10:16:17.424Z,2.60
2019-02-23T10:17:17.442Z,2.90
2019-02-23T10:18:17.403Z,2.80
2019-02-23T10:19:17.454Z,2.80
2019-02-23T10:20:17.375Z,2.90
2019-02-23T10:21:17.366Z,2.90
2019-02-23T10:22:18.385Z,3.00
2019-02-23T10:23:22.170Z,2.60
2019-02-23T10:24:17.340Z,2.40
2019-02-23T10:25:17.407Z,2.20
2019-02-23T10:26:17.313Z,2.30
2019-02-23T10:27:17.310Z,2.50
2019-02-23T10:28:17.301Z,2.60
2019-02-23T10:29:17.325Z,2.50
2019-02-23T10:30:17.275Z,2.60
2019-02-23T10:31:18.048Z,2.80
2019-02-23T10:32:17.252Z,2.80
2019-02-23T10:33:17.257Z,3.00
2019-02-23T10:34:17.226Z,3.00
2019-02-23T10:35:17.219Z,3.00
2019-02-23T10:36:17.216Z,2.80
2019-02-23T10:37:17.192Z,2.60
2019-02-23T10:38:17.287Z,2.50
2019-02-23T10:39:17.180Z,2.70
2019-02-23T10:40:17.176Z,2.70
2019-02-23T10:41:17.169Z,3.00
2019-02-23T10:42:18.160Z,2.60
2019-02-23T10:43:17.129Z,2.50
2019-02-23T10:44:17.112Z,2.30
2019-02-23T10:45:17.110Z,2.50
2019-02-23T10:46:17.139Z,2.70
2019-02-23T10:47:17.124Z,2.60
2019-02-23T10:48:17.069Z,2.50
2019-02-23T10:49:17.062Z,2.60
2019-02-23T10:50:17.066Z,2.30
2019-02-23T10:51:18.083Z,2.10
2019-02-23T10:52:17.050Z,2.40
2019-02-23T10:53:17.007Z,2.50
2019-02-23T10:54:17.012Z,2.60
2019-02-23T10:55:16.991Z,2.40
2019-02-23T10:56:16.985Z,2.50
2019-02-23T10:57:17.002Z,2.40
2019-02-23T10:58:16.967Z,2.30
2019-02-23T10:59:16.967Z,3.00
2019-02-23T11:00:16.943Z,2.70
2019-02-23T11:01:16.923Z,2.80
2019-02-23T11:02:16.982Z,2.90
2019-02-23T11:03:16.907Z,3.20
2019-02-23T11:04:16.895Z,2.60
2019-02-23T11:05:16.886Z,3.00
2019-02-23T11:06:16.881Z,3.10
2019-02-23T11:07:16.856Z,3.30
2019-02-23T11:08:16.902Z,3.30
2019-02-23T11:09:16.831Z,3.50
2019-02-23T11:10:16.827Z,3.60
2019-02-23T11:11:16.824Z,3.00
2019-02-23T11:12:16.802Z,2.80
2019-02-23T11:13:16.788Z,13.20
2019-02-23T11:14:16.805Z,3.90
2019-02-23T11:15:26.411Z,3.10
2019-02-23T11:16:16.872Z,4.10
2019-02-23T11:17:16.935Z,5.30
2019-02-23T11:18:16.814Z,4.40
2019-02-23T11:19:16.931Z,3.70
2019-02-23T11:20:16.766Z,3.00
2019-02-23T11:21:16.698Z,3.10
2019-02-23T11:22:16.682Z,3.40
2019-02-23T11:23:16.732Z,5.50
2019-02-23T11:24:18.383Z,3.00
2019-02-23T11:25:16.672Z,3.20
2019-02-23T11:26:16.680Z,5.90
2019-02-23T11:27:16.660Z,8.30
2019-02-23T11:28:16.623Z,2.90
2019-02-23T11:29:16.629Z,3.10
2019-02-23T11:30:25.402Z,3.10
2019-02-23T11:32:28.057Z,2.30
2019-02-23T11:34:43.796Z,2.70
2019-02-23T11:35:43.689Z,3.40
2019-02-23T11:36:43.669Z,2.70
2019-02-23T11:38:54.995Z,3.20
2019-02-23T11:39:54.896Z,3.00
2019-02-23T11:40:54.867Z,2.70
2019-02-23T11:41:54.836Z,3.20
2019-02-23T11:42:54.915Z,2.90
2019-02-23T11:43:54.765Z,2.50
2019-02-23T11:44:54.712Z,2.90
2019-02-23T11:45:54.736Z,2.70
2019-02-23T11:47:00.721Z,2.50
2019-02-23T11:47:55.734Z,2.10
2019-02-23T11:48:54.727Z,2.40
2019-02-23T11:49:54.664Z,2.20
2019-02-23T11:50:54.664Z,2.40
2019-02-23T11:51:54.635Z,2.50
2019-02-23T11:52:54.628Z,2.60
2019-02-23T11:53:55.402Z,3.10
2019-02-23T11:54:54.606Z,3.30
2019-02-23T11:55:54.589Z,3.00
2019-02-23T11:56:54.578Z,4.40
2019-02-23T11:57:54.574Z,3.50
2019-02-23T11:58:54.557Z,3.30
2019-02-23T11:59:54.551Z,2.50
2019-02-23T12:00:54.640Z,2.30
2019-02-23T12:01:54.530Z,2.70
2019-02-23T12:02:54.506Z,2.40
2019-02-23T12:03:54.497Z,2.50
2019-02-23T12:04:54.508Z,2.50
2019-02-23T12:05:54.481Z,2.20
2019-02-23T12:06:54.469Z,2.60
2019-02-23T12:07:54.487Z,2.70
2019-02-23T12:08:54.447Z,2.80
2019-02-23T12:09:54.479Z,2.30
2019-02-23T12:10:54.469Z,2.40
2019-02-23T12:11:54.413Z,2.60
2019-02-23T12:12:54.404Z,2.50
2019-02-23T12:13:54.415Z,2.40
2019-02-23T12:14:54.398Z,2.50
2019-02-23T12:15:54.404Z,2.30
2019-02-23T12:16:54.359Z,2.40
2019-02-23T12:17:54.347Z,2.20
2019-02-23T12:18:54.360Z,2.20
2019-02-23T12:19:55.405Z,2.30
2019-02-23T12:20:54.313Z,2.20
2019-02-23T12:21:54.330Z,2.20
2019-02-23T12:22:54.290Z,2.50
2019-02-23T12:23:54.286Z,2.40
2019-02-23T12:24:54.266Z,2.10
2019-02-23T12:25:54.249Z,2.10
2019-02-23T12:26:54.246Z,2.40
2019-02-23T12:27:54.253Z,2.50
2019-02-23T12:28:54.254Z,2.50
2019-02-23T12:29:54.218Z,2.80
2019-02-23T12:30:54.210Z,2.60
2019-02-23T12:31:54.189Z,2.50
2019-02-23T12:32:54.194Z,2.60
2019-02-23T12:33:54.190Z,1.90
2019-02-23T12:34:54.161Z,2.40
2019-02-23T12:35:54.152Z,1.90
2019-02-23T12:36:54.144Z,3.00
2019-02-23T12:37:54.182Z,2.10
2019-02-23T12:38:54.110Z,2.20
2019-02-23T12:39:55.031Z,4.60
2019-02-23T12:40:55.007Z,2.10
2019-02-23T12:41:54.088Z,2.20
2019-02-23T12:42:54.075Z,11.80
2019-02-23T12:43:54.051Z,2.40
2019-02-23T12:44:54.073Z,23.00
2019-02-23T12:45:54.057Z,11.70
2019-02-23T12:46:54.021Z,2.40
2019-02-23T12:47:54.016Z,2.20
2019-02-23T12:48:54.000Z,2.70
2019-02-23T12:49:53.983Z,2.60
2019-02-23T12:50:53.982Z,2.00
2019-02-23T12:51:54.037Z,2.00
2019-02-23T12:52:53.951Z,2.10
2019-02-23T12:53:53.956Z,2.00
2019-02-23T12:54:53.935Z,2.00
2019-02-23T12:55:53.925Z,1.90
2019-02-23T12:56:53.914Z,2.60
2019-02-23T12:57:53.918Z,2.20
2019-02-23T12:58:53.894Z,1.90
2019-02-23T12:59:53.931Z,1.80
2019-02-23T13:00:53.868Z,1.70
2019-02-23T13:01:53.864Z,1.70
2019-02-23T13:02:53.870Z,1.70
2019-02-23T13:03:53.829Z,1.80
2019-02-23T13:04:53.830Z,1.60
2019-02-23T13:05:53.820Z,1.90
2019-02-23T13:06:53.807Z,1.70
2019-02-23T13:07:53.805Z,1.70
2019-02-23T13:08:53.790Z,2.10
2019-02-23T13:09:53.792Z,1.80
2019-02-23T13:10:53.764Z,3.70
2019-02-23T13:11:53.742Z,1.90
2019-02-23T13:12:53.731Z,1.70
2019-02-23T13:13:53.733Z,2.10
2019-02-23T13:14:53.701Z,1.70
2019-02-23T13:15:53.697Z,1.60
2019-02-23T13:16:53.684Z,1.50
2019-02-23T13:17:53.712Z,1.60
2019-02-23T13:18:53.691Z,1.70
2019-02-23T13:19:53.652Z,1.60
2019-02-23T13:20:53.637Z,1.50
2019-02-23T13:21:53.633Z,1.50
2019-02-23T13:22:53.620Z,1.60
2019-02-23T13:23:53.709Z,1.70
2019-02-23T13:24:53.610Z,1.80
2019-02-23T13:25:53.583Z,1.60
2019-02-23T13:26:53.574Z,1.70
2019-02-23T13:27:53.593Z,1.50
2019-02-23T13:28:53.548Z,1.60
2019-02-23T13:29:53.613Z,1.40
2019-02-23T13:30:53.539Z,1.50
2019-02-23T13:31:53.519Z,1.50
2019-02-23T13:32:53.504Z,1.50
2019-02-23T13:33:53.501Z,1.60
2019-02-23T13:34:53.488Z,2.60
2019-02-23T13:35:53.502Z,1.90
2019-02-23T13:36:53.463Z,1.90
2019-02-23T13:37:53.469Z,2.00
2019-02-23T13:38:53.441Z,3.30
2019-02-23T13:39:53.428Z,1.80
2019-02-23T13:40:53.436Z,1.80
2019-02-23T13:41:53.411Z,1.80
2019-02-23T13:42:53.392Z,2.00
2019-02-23T13:43:53.424Z,1.70
2019-02-23T13:44:53.380Z,1.70
2019-02-23T13:45:53.943Z,1.50
2019-02-23T13:46:53.353Z,1.60
2019-02-23T13:47:53.360Z,1.60